createdAt,value
2023-05-27T00:02:15.893Z,9.38
2023-05-27T00:04:42.555Z,9.38
2023-05-27T00:07:09.202Z,9.25
2023-05-27T00:09:36.615Z,9.13
2023-05-27T00:12:03.319Z,9.25
2023-05-27T00:14:29.940Z,9.31
2023-05-27T00:16:56.564Z,9.25
2023-05-27T00:19:24.758Z,9.25
2023-05-27T00:21:55.759Z,9.13
2023-05-27T00:24:22.807Z,9.06
2023-05-27T00:26:49.440Z,9.00
2023-05-27T00:29:19.903Z,9.06
2023-05-27T00:31:46.543Z,9.06
2023-05-27T00:34:13.166Z,8.81
2023-05-27T00:36:39.783Z,8.88
2023-05-27T00:39:06.965Z,9.00
2023-05-27T00:41:33.641Z,8.94
2023-05-27T00:44:00.333Z,8.75
2023-05-27T00:46:27.036Z,8.81
2023-05-27T00:48:53.844Z,8.75
2023-05-27T00:51:21.028Z,8.75
2023-05-27T00:53:47.955Z,8.75
2023-05-27T00:56:16.447Z,8.75
2023-05-27T00:58:43.770Z,8.69
2023-05-27T01:01:11.552Z,8.75
2023-05-27T01:03:39.918Z,8.69
2023-05-27T01:06:09.973Z,8.69
2023-05-27T01:09:04.574Z,8.50
2023-05-27T01:11:43.024Z,8.56
2023-05-27T01:14:12.497Z,8.69
2023-05-27T01:16:44.954Z,8.56
2023-05-27T01:19:31.680Z,8.56
2023-05-27T01:22:00.629Z,8.38
2023-05-27T01:24:27.825Z,8.44
2023-05-27T01:27:01.925Z,8.31
2023-05-27T01:29:29.802Z,8.38
2023-05-27T01:32:16.295Z,8.50
2023-05-27T01:34:52.724Z,8.44
2023-05-27T01:37:21.103Z,8.44
2023-05-27T01:39:50.424Z,8.25
2023-05-27T01:42:17.246Z,8.44
2023-05-27T01:44:44.029Z,8.38
2023-05-27T01:47:11.937Z,8.25
2023-05-27T01:49:38.702Z,8.19
2023-05-27T01:52:05.893Z,8.13
2023-05-27T01:54:32.858Z,8.13
2023-05-27T01:56:59.427Z,8.19
2023-05-27T01:59:26.214Z,8.31
2023-05-27T02:01:53.173Z,8.31
2023-05-27T02:04:19.753Z,8.25
2023-05-27T02:06:46.323Z,8.19
2023-05-27T02:09:14.146Z,8.06
2023-05-27T02:11:40.880Z,8.13
2023-05-27T02:14:08.403Z,8.00
2023-05-27T02:16:35.332Z,8.06
2023-05-27T02:19:02.348Z,7.94
2023-05-27T02:21:29.308Z,7.94
2023-05-27T02:23:55.867Z,8.00
2023-05-27T02:26:22.958Z,8.19
2023-05-27T02:28:49.580Z,8.00
2023-05-27T02:31:16.164Z,7.94
2023-05-27T02:33:42.779Z,7.81
2023-05-27T02:36:09.603Z,7.81
2023-05-27T02:38:36.243Z,7.75
2023-05-27T02:41:02.862Z,7.69
2023-05-27T02:43:29.439Z,7.63
2023-05-27T02:45:56.339Z,7.56
2023-05-27T02:48:23.120Z,7.63
2023-05-27T02:50:49.710Z,7.75
2023-05-27T02:53:16.326Z,7.63
2023-05-27T02:55:42.942Z,7.81
2023-05-27T02:58:09.517Z,7.75
2023-05-27T03:00:36.104Z,7.75
2023-05-27T03:03:05.598Z,7.81
2023-05-27T03:05:32.273Z,7.69
2023-05-27T03:07:58.896Z,7.50
2023-05-27T03:10:25.467Z,7.63
2023-05-27T03:12:54.920Z,7.69
2023-05-27T03:15:22.756Z,7.50
2023-05-27T03:17:49.390Z,7.44
2023-05-27T03:20:17.537Z,7.44
2023-05-27T03:22:44.790Z,7.25
2023-05-27T03:25:12.426Z,7.25
2023-05-27T03:27:39.183Z,7.44
2023-05-27T03:30:06.962Z,7.38
2023-05-27T03:32:33.672Z,7.50
2023-05-27T03:35:00.595Z,7.50
2023-05-27T03:37:27.855Z,7.38
2023-05-27T03:39:54.420Z,7.38
2023-05-27T03:42:21.161Z,7.31
2023-05-27T03:44:48.056Z,7.31
2023-05-27T03:47:14.605Z,7.38
2023-05-27T03:49:41.531Z,7.44
2023-05-27T03:52:08.142Z,7.38
2023-05-27T03:54:34.744Z,7.38
2023-05-27T03:57:02.239Z,7.56
2023-05-27T03:59:28.824Z,7.25
2023-05-27T04:01:55.460Z,7.31
2023-05-27T04:04:22.173Z,7.50
2023-05-27T04:06:48.989Z,7.50
2023-05-27T04:09:15.586Z,7.56
2023-05-27T04:11:43.183Z,7.56
2023-05-27T04:14:10.879Z,7.56
2023-05-27T04:16:37.683Z,7.63
2023-05-27T04:19:04.622Z,7.63
2023-05-27T04:21:32.475Z,7.44
2023-05-27T04:23:59.042Z,7.50
2023-05-27T04:26:25.693Z,7.75
2023-05-27T04:28:52.868Z,7.75
2023-05-27T04:31:19.550Z,7.69
2023-05-27T04:33:46.340Z,7.75
2023-05-27T04:36:13.280Z,7.88
2023-05-27T04:38:39.844Z,7.69
2023-05-27T04:41:06.402Z,7.56
2023-05-27T04:43:34.317Z,7.75
2023-05-27T04:46:00.893Z,7.88
2023-05-27T04:48:28.007Z,8.00
2023-05-27T04:50:54.752Z,8.06
2023-05-27T04:53:22.373Z,8.13
2023-05-27T04:55:49.326Z,8.13
2023-05-27T04:58:16.252Z,8.06
2023-05-27T05:00:49.177Z,8.19
2023-05-27T05:03:22.791Z,8.31
2023-05-27T05:05:52.452Z,8.31
2023-05-27T05:08:20.314Z,8.44
2023-05-27T05:10:48.288Z,8.56
2023-05-27T05:13:17.109Z,8.69
2023-05-27T05:15:44.877Z,8.69
2023-05-27T05:18:12.277Z,8.75
2023-05-27T05:20:39.080Z,8.81
2023-05-27T05:23:05.818Z,8.94
2023-05-27T05:25:36.345Z,8.94
2023-05-27T05:28:02.883Z,9.06
2023-05-27T05:30:29.415Z,9.06
2023-05-27T05:32:56.105Z,9.00
2023-05-27T05:35:22.686Z,9.19
2023-05-27T05:37:50.208Z,9.31
2023-05-27T05:40:17.110Z,9.19
2023-05-27T05:42:43.684Z,9.56
2023-05-27T05:45:10.410Z,9.50
2023-05-27T05:47:37.033Z,9.56
2023-05-27T05:50:03.800Z,9.56
2023-05-27T05:52:33.763Z,9.69
2023-05-27T05:55:00.481Z,9.75
2023-05-27T05:57:27.234Z,9.94
2023-05-27T05:59:53.791Z,10.19
2023-05-27T06:02:20.632Z,10.25
2023-05-27T06:04:47.381Z,10.31
2023-05-27T06:07:14.009Z,10.19
2023-05-27T06:09:40.887Z,10.44
2023-05-27T06:12:07.891Z,10.50
2023-05-27T06:14:34.528Z,10.63
2023-05-27T06:17:01.638Z,10.81
2023-05-27T06:19:28.250Z,11.00
2023-05-27T06:21:54.859Z,11.19
2023-05-27T06:24:21.444Z,11.31
2023-05-27T06:26:48.059Z,11.31
2023-05-27T06:29:14.741Z,11.44
2023-05-27T06:31:41.352Z,11.38
2023-05-27T06:34:07.922Z,11.63
2023-05-27T06:36:34.840Z,11.38
2023-05-27T06:39:01.657Z,11.44
2023-05-27T06:41:28.292Z,11.75
2023-05-27T06:43:54.888Z,11.94
2023-05-27T06:46:21.534Z,11.81
2023-05-27T06:48:48.230Z,12.00
2023-05-27T06:51:17.594Z,12.31
2023-05-27T06:53:44.195Z,12.31
2023-05-27T06:56:11.002Z,12.38
2023-05-27T06:58:37.579Z,12.31
2023-05-27T07:01:04.222Z,12.44
2023-05-27T07:03:30.955Z,12.69
2023-05-27T07:05:57.714Z,12.88
2023-05-27T07:08:24.574Z,12.63
2023-05-27T07:10:51.460Z,12.69
2023-05-27T07:13:18.512Z,13.06
2023-05-27T07:15:45.230Z,13.19
2023-05-27T07:18:11.956Z,13.19
2023-05-27T07:20:39.791Z,12.94
2023-05-27T07:23:06.639Z,13.00
2023-05-27T07:25:33.271Z,13.19
2023-05-27T07:27:59.898Z,13.38
2023-05-27T07:30:26.984Z,13.38
2023-05-27T07:32:54.286Z,13.50
2023-05-27T07:35:21.304Z,13.81
2023-05-27T07:37:47.942Z,13.56
2023-05-27T07:40:14.582Z,13.69
2023-05-27T07:42:41.286Z,13.81
2023-05-27T07:45:08.563Z,14.00
2023-05-27T07:47:35.445Z,13.88
2023-05-27T07:50:02.163Z,13.81
2023-05-27T07:52:28.800Z,13.88
2023-05-27T07:54:55.996Z,14.19
2023-05-27T07:57:22.868Z,14.50
2023-05-27T07:59:50.116Z,14.56
2023-05-27T08:02:16.792Z,14.81
2023-05-27T08:04:44.771Z,14.75
2023-05-27T08:07:11.633Z,15.06
2023-05-27T08:09:38.233Z,15.06
2023-05-27T08:12:07.085Z,15.06
2023-05-27T08:14:34.209Z,15.19
2023-05-27T08:17:01.119Z,15.06
2023-05-27T08:19:28.584Z,15.13
2023-05-27T08:21:56.943Z,15.31
2023-05-27T08:24:23.959Z,15.13
2023-05-27T08:26:51.238Z,14.69
2023-05-27T08:29:17.971Z,14.56
2023-05-27T08:31:44.704Z,14.56
2023-05-27T08:34:11.616Z,14.50
2023-05-27T08:36:38.591Z,15.06
2023-05-27T08:39:06.202Z,15.38
2023-05-27T08:41:33.034Z,15.56
2023-05-27T08:44:18.971Z,15.44
2023-05-27T08:46:50.161Z,15.50
2023-05-27T08:49:17.818Z,15.88
2023-05-27T08:51:46.448Z,15.88
2023-05-27T08:54:13.169Z,16.13
2023-05-27T08:56:41.309Z,15.63
2023-05-27T08:59:08.549Z,16.00
2023-05-27T09:01:36.603Z,16.38
2023-05-27T09:04:03.756Z,16.56
2023-05-27T09:06:30.558Z,16.69
2023-05-27T09:08:57.140Z,16.06
2023-05-27T09:11:30.261Z,16.06
2023-05-27T09:13:57.562Z,16.38
2023-05-27T09:16:24.407Z,16.63
2023-05-27T09:18:51.269Z,16.81
2023-05-27T09:21:18.416Z,16.69
2023-05-27T09:23:45.361Z,16.94
2023-05-27T09:26:13.227Z,16.94
2023-05-27T09:28:41.117Z,16.69
2023-05-27T09:31:09.791Z,16.81
2023-05-27T09:33:39.593Z,17.25
2023-05-27T09:36:07.806Z,17.38
2023-05-27T09:38:36.089Z,17.31
2023-05-27T09:41:03.974Z,17.19
2023-05-27T09:43:31.348Z,17.50
2023-05-27T09:46:04.006Z,17.56
2023-05-27T09:48:35.152Z,17.81
2023-05-27T09:51:02.105Z,18.13
2023-05-27T09:53:29.526Z,18.19
2023-05-27T09:55:58.199Z,18.13
2023-05-27T09:58:25.740Z,17.69
2023-05-27T10:00:52.965Z,17.94
2023-05-27T10:03:23.403Z,17.81
2023-05-27T10:05:52.152Z,17.81
2023-05-27T10:08:26.191Z,18.31
2023-05-27T10:10:54.439Z,18.25
2023-05-27T10:13:22.179Z,18.06
2023-05-27T10:15:51.918Z,17.88
2023-05-27T10:18:30.465Z,17.81
2023-05-27T10:20:58.951Z,17.88
2023-05-27T10:23:27.693Z,18.31
2023-05-27T10:26:01.969Z,18.19
2023-05-27T10:28:34.088Z,18.25
2023-05-27T10:31:12.566Z,18.69
2023-05-27T10:33:53.429Z,18.63
2023-05-27T10:36:25.669Z,18.44
2023-05-27T10:39:01.733Z,18.75
2023-05-27T10:41:28.436Z,18.63
2023-05-27T10:43:59.550Z,19.13
2023-05-27T10:46:27.257Z,19.44
2023-05-27T10:48:54.648Z,19.44
2023-05-27T10:51:32.584Z,19.25
2023-05-27T10:54:27.732Z,19.31
2023-05-27T10:56:51.899Z,18.69
2023-05-27T10:59:23.178Z,19.25
2023-05-27T11:01:54.586Z,18.81
2023-05-27T11:04:22.688Z,19.13
2023-05-27T11:07:03.714Z,19.81
2023-05-27T11:09:32.327Z,19.44
2023-05-27T11:12:03.793Z,19.75
2023-05-27T11:14:31.557Z,19.69
2023-05-27T11:16:58.115Z,20.19
2023-05-27T11:19:24.733Z,20.13
2023-05-27T11:21:51.370Z,20.00
2023-05-27T11:24:21.148Z,20.50
2023-05-27T11:26:48.718Z,20.00
2023-05-27T11:29:15.702Z,19.88
2023-05-27T11:31:46.833Z,20.25
2023-05-27T11:34:14.934Z,19.75
2023-05-27T11:36:45.483Z,19.38
2023-05-27T11:39:17.522Z,19.31
2023-05-27T11:41:52.148Z,20.06
2023-05-27T11:44:20.499Z,20.25
2023-05-27T11:46:48.646Z,20.38
2023-05-27T11:49:20.157Z,20.50
2023-05-27T11:51:48.696Z,20.38
2023-05-27T11:54:36.344Z,20.44
2023-05-27T11:57:07.967Z,20.38
2023-05-27T11:59:35.870Z,20.63
2023-05-27T12:02:02.498Z,20.56
2023-05-27T12:04:29.222Z,20.88
2023-05-27T12:06:56.520Z,20.69
2023-05-27T12:09:23.599Z,20.69
2023-05-27T12:11:50.394Z,20.88
2023-05-27T12:14:17.039Z,21.25
2023-05-27T12:16:43.695Z,20.75
2023-05-27T12:19:12.647Z,21.00
2023-05-27T12:21:39.575Z,21.13
2023-05-27T12:24:07.071Z,21.13
2023-05-27T12:26:33.656Z,21.31
2023-05-27T12:29:00.252Z,21.13
2023-05-27T12:31:27.007Z,21.25
2023-05-27T12:33:53.687Z,21.25
2023-05-27T12:36:20.522Z,21.13
2023-05-27T12:38:47.173Z,21.19
2023-05-27T12:41:14.503Z,21.19
2023-05-27T12:43:41.138Z,21.31
2023-05-27T12:46:07.945Z,21.19
2023-05-27T12:48:34.553Z,21.13
2023-05-27T12:51:01.284Z,20.81
2023-05-27T12:53:27.844Z,21.31
2023-05-27T12:55:54.399Z,21.13
2023-05-27T12:58:21.013Z,21.56
2023-05-27T13:00:47.711Z,21.38
2023-05-27T13:03:14.387Z,21.13
2023-05-27T13:05:41.069Z,21.31
2023-05-27T13:08:08.028Z,21.25
2023-05-27T13:10:34.844Z,21.63
2023-05-27T13:13:02.231Z,21.63
2023-05-27T13:15:30.223Z,21.50
2023-05-27T13:17:57.507Z,21.38
2023-05-27T13:20:25.667Z,21.19
2023-05-27T13:22:53.914Z,21.38
2023-05-27T13:25:21.153Z,21.50
2023-05-27T13:27:47.913Z,21.63
2023-05-27T13:30:16.372Z,21.56
2023-05-27T13:32:44.523Z,21.69
2023-05-27T13:35:12.446Z,21.13
2023-05-27T13:37:42.766Z,21.06
2023-05-27T13:40:10.355Z,21.25
2023-05-27T13:42:37.294Z,21.25
2023-05-27T13:45:04.546Z,21.38
2023-05-27T13:47:31.997Z,21.31
2023-05-27T13:49:58.686Z,21.44
2023-05-27T13:52:25.337Z,21.31
2023-05-27T13:54:52.066Z,21.38
2023-05-27T13:57:18.738Z,21.56
2023-05-27T13:59:45.347Z,21.31
2023-05-27T14:02:11.920Z,21.19
2023-05-27T14:04:38.586Z,21.19
2023-05-27T14:07:05.412Z,21.31
2023-05-27T14:09:32.018Z,21.50
2023-05-27T14:11:58.773Z,21.44
2023-05-27T14:14:25.383Z,21.38
2023-05-27T14:16:52.025Z,21.38
2023-05-27T14:19:18.733Z,21.56
2023-05-27T14:21:46.282Z,21.50
2023-05-27T14:24:13.696Z,21.56
2023-05-27T14:26:41.397Z,21.38
2023-05-27T14:29:08.160Z,21.25
2023-05-27T14:31:34.869Z,21.13
2023-05-27T14:34:01.507Z,21.25
2023-05-27T14:36:28.154Z,21.31
2023-05-27T14:38:54.769Z,21.44
2023-05-27T14:41:21.714Z,21.44
2023-05-27T14:43:50.318Z,21.25
2023-05-27T14:46:18.510Z,21.31
2023-05-27T14:48:45.234Z,21.56
2023-05-27T14:51:12.976Z,21.50
2023-05-27T14:53:39.580Z,21.31
2023-05-27T14:56:06.461Z,21.25
2023-05-27T14:58:33.047Z,21.19
2023-05-27T15:00:59.682Z,21.19
2023-05-27T15:03:26.928Z,21.13
2023-05-27T15:05:55.769Z,21.50
2023-05-27T15:08:22.362Z,21.38
2023-05-27T15:10:49.307Z,21.44
2023-05-27T15:13:15.965Z,21.38
2023-05-27T15:15:44.615Z,21.44
2023-05-27T15:18:11.913Z,21.44
2023-05-27T15:20:39.898Z,21.50
2023-05-27T15:23:06.543Z,21.50
2023-05-27T15:25:33.204Z,21.38
2023-05-27T15:27:59.847Z,21.31
2023-05-27T15:30:27.705Z,21.31
2023-05-27T15:32:54.353Z,21.31
2023-05-27T15:35:20.970Z,21.38
2023-05-27T15:37:48.123Z,21.38
2023-05-27T15:40:14.837Z,21.25
2023-05-27T15:42:41.468Z,21.44
2023-05-27T15:45:08.695Z,21.38
2023-05-27T15:47:35.735Z,21.56
2023-05-27T15:50:03.912Z,21.56
2023-05-27T15:52:30.807Z,21.50
2023-05-27T15:54:57.480Z,21.44
2023-05-27T15:57:24.342Z,21.44
2023-05-27T15:59:53.065Z,21.31
2023-05-27T16:02:19.684Z,21.44
2023-05-27T16:04:47.125Z,21.38
2023-05-27T16:07:14.636Z,21.31
2023-05-27T16:09:41.303Z,21.19
2023-05-27T16:12:08.251Z,21.13
2023-05-27T16:14:35.164Z,21.31
2023-05-27T16:17:01.721Z,21.50
2023-05-27T16:19:28.363Z,21.44
2023-05-27T16:21:54.939Z,21.56
2023-05-27T16:24:21.698Z,21.56
2023-05-27T16:26:48.291Z,21.38
2023-05-27T16:29:14.849Z,21.38
2023-05-27T16:31:41.462Z,21.38
2023-05-27T16:34:08.695Z,21.44
2023-05-27T16:36:37.395Z,21.50
2023-05-27T16:39:04.032Z,21.50
2023-05-27T16:41:30.675Z,21.50
2023-05-27T16:43:57.220Z,21.25
2023-05-27T16:46:23.893Z,21.25
2023-05-27T16:48:50.582Z,21.25
2023-05-27T16:51:17.190Z,21.25
2023-05-27T16:53:43.836Z,21.13
2023-05-27T16:56:10.846Z,21.25
2023-05-27T16:58:38.008Z,21.25
2023-05-27T17:01:04.748Z,21.13
2023-05-27T17:03:31.577Z,21.19
2023-05-27T17:05:59.717Z,21.19
2023-05-27T17:08:26.513Z,21.13
2023-05-27T17:10:53.348Z,21.25
2023-05-27T17:13:20.301Z,21.19
2023-05-27T17:15:47.123Z,21.13
2023-05-27T17:18:13.973Z,20.94
2023-05-27T17:20:41.419Z,21.25
2023-05-27T17:23:08.810Z,21.13
2023-05-27T17:25:36.417Z,21.00
2023-05-27T17:28:03.439Z,21.00
2023-05-27T17:30:30.010Z,20.88
2023-05-27T17:32:56.578Z,21.00
2023-05-27T17:35:23.413Z,20.94
2023-05-27T17:37:50.033Z,21.00
2023-05-27T17:40:16.659Z,20.94
2023-05-27T17:42:43.306Z,20.94
2023-05-27T17:45:10.112Z,20.81
2023-05-27T17:47:36.911Z,20.88
2023-05-27T17:50:03.650Z,20.69
2023-05-27T17:52:30.237Z,20.75
2023-05-27T17:54:56.797Z,20.69
2023-05-27T17:57:23.529Z,20.81
2023-05-27T17:59:50.246Z,20.75
2023-05-27T18:02:18.249Z,20.50
2023-05-27T18:04:45.036Z,20.38
2023-05-27T18:07:11.733Z,20.13
2023-05-27T18:09:39.755Z,20.13
2023-05-27T18:12:07.829Z,20.25
2023-05-27T18:14:35.374Z,20.25
2023-05-27T18:17:06.436Z,20.06
2023-05-27T18:19:33.839Z,19.94
2023-05-27T18:22:00.544Z,19.75
2023-05-27T18:24:27.122Z,19.75
2023-05-27T18:26:54.410Z,19.75
2023-05-27T18:29:21.291Z,19.69
2023-05-27T18:31:47.894Z,19.63
2023-05-27T18:34:16.426Z,19.75
2023-05-27T18:36:43.189Z,19.63
2023-05-27T18:39:09.758Z,19.50
2023-05-27T18:41:36.465Z,19.56
2023-05-27T18:44:04.120Z,19.44
2023-05-27T18:46:30.941Z,19.38
2023-05-27T18:48:57.611Z,19.19
2023-05-27T18:51:24.221Z,19.19
2023-05-27T18:53:50.941Z,19.13
2023-05-27T18:56:18.669Z,19.00
2023-05-27T18:58:45.631Z,18.94
2023-05-27T19:01:12.300Z,18.88
2023-05-27T19:03:39.158Z,18.75
2023-05-27T19:06:05.943Z,18.69
2023-05-27T19:08:32.687Z,18.44
2023-05-27T19:10:59.346Z,18.31
2023-05-27T19:13:26.124Z,18.19
2023-05-27T19:15:52.770Z,18.19
2023-05-27T19:18:19.451Z,18.13
2023-05-27T19:20:46.270Z,18.25
2023-05-27T19:23:13.039Z,18.19
2023-05-27T19:25:39.863Z,18.06
2023-05-27T19:28:06.443Z,18.13
2023-05-27T19:30:33.032Z,18.13
2023-05-27T19:32:59.815Z,17.81
2023-05-27T19:35:26.552Z,17.75
2023-05-27T19:37:53.302Z,17.63
2023-05-27T19:40:19.952Z,17.50
2023-05-27T19:42:46.769Z,17.56
2023-05-27T19:45:13.317Z,17.56
2023-05-27T19:47:39.899Z,17.56
2023-05-27T19:50:07.412Z,17.44
2023-05-27T19:52:34.070Z,17.31
2023-05-27T19:55:02.088Z,17.31
2023-05-27T19:57:29.086Z,17.19
2023-05-27T19:59:55.724Z,17.13
2023-05-27T20:02:22.491Z,17.06
2023-05-27T20:04:49.152Z,16.94
2023-05-27T20:07:15.810Z,16.88
2023-05-27T20:09:42.673Z,16.81
2023-05-27T20:12:09.300Z,16.69
2023-05-27T20:14:35.954Z,16.56
2023-05-27T20:17:02.580Z,16.63
2023-05-27T20:19:29.215Z,16.56
2023-05-27T20:21:55.820Z,16.63
2023-05-27T20:24:22.407Z,16.50
2023-05-27T20:26:48.988Z,16.38
2023-05-27T20:29:15.671Z,16.44
2023-05-27T20:31:43.400Z,16.38
2023-05-27T20:34:09.988Z,16.31
2023-05-27T20:36:36.690Z,16.19
2023-05-27T20:39:03.370Z,16.19
2023-05-27T20:41:29.948Z,16.06
2023-05-27T20:43:59.341Z,16.06
2023-05-27T20:46:27.601Z,16.00
2023-05-27T20:48:56.232Z,15.94
2023-05-27T20:51:26.604Z,15.88
2023-05-27T20:53:54.283Z,15.81
2023-05-27T20:56:26.038Z,15.81
2023-05-27T20:58:52.762Z,15.88
2023-05-27T21:01:19.365Z,15.81
2023-05-27T21:03:46.151Z,15.75
2023-05-27T21:06:13.419Z,15.69
2023-05-27T21:08:40.046Z,15.63
2023-05-27T21:11:06.671Z,15.69
2023-05-27T21:13:33.302Z,15.69
2023-05-27T21:16:00.105Z,15.69
2023-05-27T21:18:26.794Z,15.69
2023-05-27T21:20:55.403Z,15.81
2023-05-27T21:23:23.237Z,15.69
2023-05-27T21:25:50.989Z,15.75
2023-05-27T21:28:17.646Z,15.75
2023-05-27T21:30:44.997Z,15.75
2023-05-27T21:33:12.065Z,15.75
2023-05-27T21:35:38.812Z,15.56
2023-05-27T21:38:07.074Z,15.44
2023-05-27T21:40:33.782Z,15.50
2023-05-27T21:43:00.490Z,15.38
2023-05-27T21:45:28.500Z,15.31
2023-05-27T21:47:55.361Z,15.25
2023-05-27T21:50:22.105Z,15.25
2023-05-27T21:52:48.706Z,15.13
2023-05-27T21:55:15.404Z,15.13
2023-05-27T21:57:42.038Z,15.13
2023-05-27T22:00:14.699Z,15.13
2023-05-27T22:02:41.425Z,15.00
2023-05-27T22:05:08.396Z,15.06
2023-05-27T22:07:34.963Z,15.06
2023-05-27T22:10:01.649Z,15.00
2023-05-27T22:12:28.248Z,14.81
2023-05-27T22:14:54.856Z,14.81
2023-05-27T22:17:21.515Z,14.69
2023-05-27T22:19:48.110Z,14.56
2023-05-27T22:22:14.703Z,14.50
2023-05-27T22:24:41.304Z,14.44
2023-05-27T22:27:08.107Z,14.63
2023-05-27T22:29:34.769Z,14.63
2023-05-27T22:32:01.328Z,14.56
2023-05-27T22:34:27.922Z,14.56
2023-05-27T22:36:54.464Z,14.63
2023-05-27T22:39:21.421Z,14.56
2023-05-27T22:41:48.077Z,14.50
2023-05-27T22:44:14.707Z,14.31
2023-05-27T22:46:41.323Z,14.31
2023-05-27T22:49:10.236Z,14.19
2023-05-27T22:51:38.129Z,14.19
2023-05-27T22:54:05.168Z,14.13
2023-05-27T22:56:31.744Z,14.06
2023-05-27T22:58:58.307Z,14.19
2023-05-27T23:01:24.910Z,14.13
2023-05-27T23:03:51.581Z,14.06
2023-05-27T23:06:18.264Z,13.88
2023-05-27T23:08:44.869Z,13.69
2023-05-27T23:11:11.423Z,13.44
2023-05-27T23:13:38.043Z,13.56
2023-05-27T23:16:08.808Z,13.56
2023-05-27T23:18:36.061Z,13.50
2023-05-27T23:21:04.718Z,13.56
2023-05-27T23:23:31.768Z,13.56
2023-05-27T23:25:59.310Z,13.63
2023-05-27T23:28:25.946Z,13.56
2023-05-27T23:30:52.786Z,13.50
2023-05-27T23:33:20.057Z,13.44
2023-05-27T23:35:46.669Z,13.50
2023-05-27T23:38:13.468Z,13.50
2023-05-27T23:40:40.058Z,13.44
2023-05-27T23:43:06.843Z,13.44
2023-05-27T23:45:33.490Z,13.44
2023-05-27T23:48:00.312Z,13.44
2023-05-27T23:50:27.020Z,13.38
2023-05-27T23:52:53.642Z,13.31
2023-05-27T23:55:20.330Z,13.31
2023-05-27T23:57:46.938Z,13.38
